Pagrindinis puslapis
METAR-TAF:

METAR-TAF

Oro uostai :

Al Wajh, Saudo Arabija

platuma: 26-12N, ilguma: 036-28E, Aukštis: 20 m

Dabartinis oras

Ataskaita buvo paskelbta 48 minutes, ne 23:00 UTC
Vėjas 7 kt iš Šiaurės/Šiaurės Vakarų
Temperatūra 27°C
Drėgmė 74%
Slėgis 1006 hPa
Matomumas 10 km arba daugiau
nėra debesų žemiau 1500 m ir nėra kamuolinių lietaus debesų

METAR: OEWJ 052300Z 33007KT CAVOK 27/22 Q1006 NOSIG

Laikas: 02:48 (23:48 UTC)

Prognozė

Ataskaita buvo paskelbta 12 valandos ir 48 minutes, ne 11:00 UTC
Prognozė galioja nuo 05 metu 12 UTC su 06 metu 18 UTC
Vėjas 20 kt iš Vakarų/Šiaurės Vakarų
Matomumas: 6000 m
Tapsmas
nuo 05 metu 18 UTC su 05 metu 20 UTC
Vėjas 6 kt iš Šiaurės

TAF: OEWJ 051100Z 0512/0618 30020KT 6000 NSC BECMG 0518/0520 36006KT

Orai ataskaitas ir orų prognozės (METAR, TAF).

turimą stotys yra geltonos ir raudonos taškus žemėlapyje.

Perkelti pele per norėdami pamatyti stoties vardą.

Tada spustelėkite, norėdami matyti oro stebėjimo ir prognozės.

Norėdami pakeisti žemėlapį: spustelėkite ant žalios mygtukų su juodo kryžiaus žemyn,; žalią mygtuką su brūkšneliu, jei norite nutolinti; arba žalių rodyklių gretimoms žemėlapius.


METAR-TAF: